Time;durP1;ratioP1;P1;durP2;ratioP2;P2;SDS_P1;SDS_P2;PMS_P1;PMS_P2;Temp;Humidity;BMP_temperature;BMP_pressure;BME280_temperature;BME280_humidity;BME280_pressure;Samples;Min_cycle;Max_cycle;Signal;HPM_P1;HPM_P2
2022/02/12 00:02:23;;;;;;;0.10;0.10;;;0.30;99.90;;;;;;5062058;28;20180;-82
2022/02/12 00:04:48;;;;;;;0.77;0.47;;;0.30;99.90;;;;;;5069716;28;20288;-82
2022/02/12 00:07:14;;;;;;;0.10;0.10;;;0.20;99.90;;;;;;5067090;28;20179;-82
2022/02/12 00:09:39;;;;;;;0.10;0.10;;;0.10;99.90;;;;;;5058963;28;20182;-82
2022/02/12 00:12:05;;;;;;;0.47;0.20;;;-0.10;99.90;;;;;;5067783;28;20203;-82
2022/02/12 00:14:30;;;;;;;0.00;0.00;;;-0.10;99.90;;;;;;5058178;28;20174;-82
2022/02/12 00:16:56;;;;;;;0.13;0.13;;;0.00;99.90;;;;;;5066893;28;20224;-82
2022/02/12 00:19:22;;;;;;;0.30;0.30;;;0.10;99.90;;;;;;5069913;28;20197;-83
2022/02/12 00:21:48;;;;;;;0.20;0.20;;;0.20;99.90;;;;;;5068235;28;20190;-82
2022/02/12 00:24:13;;;;;;;0.40;0.40;;;0.20;99.90;;;;;;5062797;28;20211;-83
2022/02/12 00:26:39;;;;;;;0.10;0.10;;;0.20;99.90;;;;;;5068515;28;20207;-82
2022/02/12 00:29:04;;;;;;;0.10;0.10;;;0.30;99.90;;;;;;5061782;28;20173;-82
2022/02/12 00:31:30;;;;;;;0.10;0.10;;;0.40;99.90;;;;;;5068429;28;20201;-82
2022/02/12 00:33:55;;;;;;;0.70;0.70;;;0.30;99.90;;;;;;5069273;28;20192;-82
2022/02/12 00:36:21;;;;;;;0.47;0.40;;;0.30;99.90;;;;;;5057171;28;20208;-83
2022/02/12 00:38:47;;;;;;;0.37;0.33;;;0.40;99.90;;;;;;5067512;28;20196;-82
2022/02/12 00:41:12;;;;;;;0.20;0.20;;;0.50;99.90;;;;;;5058245;28;20224;-83
2022/02/12 00:43:39;;;;;;;0.00;0.00;;;0.50;99.90;;;;;;5068544;28;20193;-82
2022/02/12 00:46:04;;;;;;;0.27;0.27;;;0.50;99.90;;;;;;5057251;28;20198;-83
2022/02/12 00:48:30;;;;;;;0.23;0.23;;;0.50;99.90;;;;;;5068971;28;20256;-82
2022/02/12 00:50:59;;;;;;;2.47;0.30;;;0.50;99.90;;;;;;5057777;28;20178;-82
2022/02/12 00:53:26;;;;;;;0.10;0.10;;;0.60;99.90;;;;;;5067569;28;20232;-82
2022/02/12 00:55:51;;;;;;;0.10;0.10;;;0.60;99.90;;;;;;5058963;28;20202;-82
2022/02/12 00:58:17;;;;;;;0.00;0.00;;;0.60;99.90;;;;;;5066803;28;20193;-82
2022/02/12 01:00:42;;;;;;;0.17;0.10;;;0.60;99.90;;;;;;5063880;28;20539;-82
2022/02/12 01:03:08;;;;;;;0.07;0.07;;;0.70;99.90;;;;;;5063806;28;20189;-82
2022/02/12 01:05:34;;;;;;;0.10;0.10;;;0.70;99.90;;;;;;5058485;28;20225;-83
2022/02/12 01:08:00;;;;;;;0.20;0.20;;;0.60;99.90;;;;;;5064185;28;20182;-82
2022/02/12 01:10:25;;;;;;;0.23;0.23;;;0.60;99.90;;;;;;5066818;28;20179;-82
2022/02/12 01:12:51;;;;;;;0.20;0.20;;;0.60;99.90;;;;;;5057139;28;20623;-83
2022/02/12 01:15:16;;;;;;;0.23;0.20;;;0.50;99.90;;;;;;5067569;28;20206;-82
2022/02/12 01:17:42;;;;;;;0.10;0.10;;;0.50;99.90;;;;;;5057128;28;20193;-82
2022/02/12 01:20:08;;;;;;;0.37;0.20;;;0.50;99.90;;;;;;5062540;28;20192;-82
2022/02/12 01:22:33;;;;;;;0.10;0.10;;;0.50;99.90;;;;;;5067685;28;20627;-82
2022/02/12 01:24:59;;;;;;;0.10;0.10;;;0.50;99.90;;;;;;5067690;28;20295;-82
2022/02/12 01:27:24;;;;;;;0.07;0.07;;;0.50;99.90;;;;;;5061924;28;20221;-81
2022/02/12 01:29:50;;;;;;;0.30;0.30;;;0.50;99.90;;;;;;5065490;28;20193;-82
2022/02/12 01:32:15;;;;;;;0.10;0.10;;;0.50;99.90;;;;;;5062019;28;20213;-82
2022/02/12 01:34:41;;;;;;;0.13;0.13;;;0.30;99.90;;;;;;5064623;28;20227;-82
2022/02/12 01:37:08;;;;;;;0.10;0.10;;;0.30;99.90;;;;;;5068073;28;20186;-82
2022/02/12 01:39:34;;;;;;;0.00;0.00;;;0.30;99.90;;;;;;5066252;28;20654;-83
2022/02/12 01:42:00;;;;;;;0.10;0.10;;;0.30;99.90;;;;;;5061834;28;20189;-82
2022/02/12 01:44:33;;;;;;;0.13;0.13;;;0.30;99.90;;;;;;5056099;28;20239;-83
2022/02/12 01:47:00;;;;;;;0.10;0.10;;;0.30;99.90;;;;;;5056099;28;20672;-83
2022/02/12 01:49:26;;;;;;;0.20;0.20;;;0.20;99.90;;;;;;5067485;28;20213;-83
2022/02/12 01:51:54;;;;;;;0.40;0.40;;;0.30;99.90;;;;;;5068123;28;20548;-82
2022/02/12 01:54:19;;;;;;;0.10;0.10;;;0.30;99.90;;;;;;5057507;28;20185;-83
2022/02/12 01:56:45;;;;;;;0.10;0.10;;;0.20;99.90;;;;;;5066874;28;20603;-82
2022/02/12 01:59:11;;;;;;;0.00;0.00;;;0.20;99.90;;;;;;5056105;28;20189;-82
2022/02/12 02:01:37;;;;;;;0.00;0.00;;;0.20;99.90;;;;;;5067192;28;20555;-82
2022/02/12 02:04:03;;;;;;;0.20;0.20;;;0.20;99.90;;;;;;5056338;28;20210;-83
2022/02/12 02:06:28;;;;;;;0.43;0.43;;;0.20;99.90;;;;;;5064018;28;20198;-82
2022/02/12 02:08:54;;;;;;;0.00;0.00;;;0.20;99.90;;;;;;5061136;28;20634;-82
2022/02/12 02:11:19;;;;;;;0.10;0.10;;;0.30;99.90;;;;;;5067181;28;20551;-82
2022/02/12 02:13:45;;;;;;;0.17;0.17;;;0.30;99.90;;;;;;5065362;28;20558;-82
2022/02/12 02:16:12;;;;;;;0.00;0.00;;;0.30;99.90;;;;;;5069346;28;20572;-82
2022/02/12 02:18:38;;;;;;;0.10;0.10;;;0.30;99.90;;;;;;5068666;28;20746;-82
2022/02/12 02:21:06;;;;;;;0.20;0.20;;;0.20;99.90;;;;;;5061107;28;20188;-82
2022/02/12 02:23:32;;;;;;;6.90;0.47;;;0.20;99.90;;;;;;5070677;28;20206;-82
2022/02/12 02:25:59;;;;;;;0.20;0.20;;;0.20;99.90;;;;;;5059962;28;20220;-83
2022/02/12 02:28:24;;;;;;;0.10;0.10;;;0.20;99.90;;;;;;5062705;28;20182;-83
2022/02/12 02:30:51;;;;;;;0.60;0.60;;;0.20;99.90;;;;;;5071296;28;20292;-82
2022/02/12 02:36:39;;;;;;;0.30;0.30;;;0.30;99.90;;;;;;5065821;28;20235;-82
2022/02/12 02:39:05;;;;;;;0.10;0.10;;;0.30;99.90;;;;;;5068697;28;20266;-83
2022/02/12 02:41:32;;;;;;;0.10;0.10;;;0.20;99.90;;;;;;5069362;28;20757;-83
2022/02/12 02:43:58;;;;;;;0.17;0.17;;;0.20;99.90;;;;;;5059477;28;20211;-82
2022/02/12 02:46:23;;;;;;;0.10;0.10;;;0.20;99.90;;;;;;5066893;28;20206;-82
2022/02/12 02:48:49;;;;;;;0.30;0.10;;;0.10;99.90;;;;;;5069538;28;20194;-82
2022/02/12 02:56:43;;;;;;;0.07;0.07;;;-0.20;99.90;;;;;;5071935;28;20707;-82
2022/02/12 02:59:09;;;;;;;0.10;0.10;;;-0.20;99.90;;;;;;5059327;28;20272;-83
2022/02/12 03:01:35;;;;;;;0.20;0.20;;;-0.20;99.90;;;;;;5070380;28;20264;-82
2022/02/12 03:04:02;;;;;;;0.10;0.10;;;-0.10;99.90;;;;;;5060875;28;20210;-82
2022/02/12 03:06:29;;;;;;;0.40;0.40;;;-0.10;99.90;;;;;;5060130;28;20205;-82
2022/02/12 03:08:56;;;;;;;0.10;0.10;;;-0.10;99.90;;;;;;5068873;28;20533;-82
2022/02/12 03:11:22;;;;;;;0.73;0.73;;;-0.10;99.90;;;;;;5062158;28;20233;-82
2022/02/12 03:13:49;;;;;;;4.27;0.40;;;-0.20;99.90;;;;;;5065924;28;20191;-82
2022/02/12 03:16:15;;;;;;;0.10;0.10;;;-0.10;99.90;;;;;;5064988;28;20205;-82
2022/02/12 03:18:45;;;;;;;0.30;0.20;;;-0.20;99.90;;;;;;5061083;28;20185;-83
2022/02/12 03:21:11;;;;;;;0.73;0.30;;;-0.20;99.90;;;;;;5066039;28;20181;-82
2022/02/12 03:23:38;;;;;;;0.30;0.30;;;-0.10;99.90;;;;;;5060482;28;20197;-82
2022/02/12 03:26:04;;;;;;;0.10;0.10;;;-0.20;99.90;;;;;;5070516;28;20288;-80
2022/02/12 03:28:29;;;;;;;0.00;0.00;;;-0.10;99.90;;;;;;5061214;28;20179;-82
2022/02/12 03:30:55;;;;;;;0.00;0.00;;;-0.10;99.90;;;;;;5073473;28;20226;-82
2022/02/12 03:33:22;;;;;;;0.30;0.10;;;-0.20;99.90;;;;;;5061546;28;20182;-82
2022/02/12 03:35:51;;;;;;;0.00;0.00;;;-0.20;99.90;;;;;;5069439;28;20197;-82
2022/02/12 03:38:27;;;;;;;0.07;0.07;;;-0.20;99.90;;;;;;5059890;28;20256;-82
2022/02/12 03:41:00;;;;;;;0.10;0.10;;;-0.20;99.90;;;;;;5071287;28;20177;-83
2022/02/12 03:43:27;;;;;;;0.00;0.00;;;-0.20;99.90;;;;;;5062515;28;20182;-81
2022/02/12 03:45:53;;;;;;;0.17;0.17;;;-0.20;99.90;;;;;;5067284;28;20201;-83
2022/02/12 03:48:19;;;;;;;0.10;0.10;;;-0.20;99.90;;;;;;5069804;28;20177;-82
2022/02/12 03:50:44;;;;;;;9.13;0.37;;;-0.20;99.90;;;;;;5061542;28;20582;-83
2022/02/12 03:53:11;;;;;;;0.17;0.17;;;-0.30;99.90;;;;;;5065145;28;20175;-82
2022/02/12 03:55:39;;;;;;;0.10;0.10;;;-0.30;99.90;;;;;;5063147;28;20211;-82
2022/02/12 03:58:05;;;;;;;0.10;0.10;;;-0.40;99.90;;;;;;5070064;28;20265;-83
2022/02/12 04:00:31;;;;;;;0.47;0.47;;;-0.30;99.90;;;;;;5066132;28;20182;-82
2022/02/12 04:02:57;;;;;;;0.47;0.47;;;-0.40;99.90;;;;;;5066128;28;20685;-82
2022/02/12 04:05:23;;;;;;;0.10;0.10;;;-0.50;99.90;;;;;;5060019;28;20604;-82
2022/02/12 04:07:48;;;;;;;0.33;0.33;;;-0.60;99.90;;;;;;5069783;28;20256;-82
2022/02/12 04:10:17;;;;;;;2.00;0.40;;;-0.80;99.90;;;;;;5064185;28;20165;-82
2022/02/12 04:12:43;;;;;;;0.20;0.20;;;-0.80;99.90;;;;;;5057889;28;20184;-82
2022/02/12 04:15:10;;;;;;;0.00;0.00;;;-0.80;99.90;;;;;;5069292;28;20201;-82
2022/02/12 04:17:36;;;;;;;0.10;0.10;;;-0.80;99.90;;;;;;5056919;28;20181;-82
2022/02/12 04:20:04;;;;;;;0.10;0.10;;;-0.80;99.90;;;;;;5068053;28;20334;-82
2022/02/12 04:22:32;;;;;;;0.10;0.10;;;-0.70;99.90;;;;;;5059130;28;20659;-82
2022/02/12 04:24:58;;;;;;;0.17;0.17;;;-0.70;99.90;;;;;;5068489;28;20247;-83
2022/02/12 04:27:23;;;;;;;0.10;0.10;;;-0.70;99.90;;;;;;5062849;28;20706;-82
2022/02/12 04:29:48;;;;;;;0.20;0.10;;;-0.70;99.90;;;;;;5065896;28;20533;-83
2022/02/12 04:32:14;;;;;;;0.37;0.37;;;-0.70;99.90;;;;;;5066121;28;20256;-83
2022/02/12 04:34:40;;;;;;;0.10;0.10;;;-0.70;99.90;;;;;;5061746;28;20532;-82
2022/02/12 04:37:05;;;;;;;0.10;0.10;;;-0.60;99.90;;;;;;5061902;28;20185;-82
2022/02/12 04:39:31;;;;;;;0.23;0.20;;;-0.70;99.90;;;;;;5066519;28;20730;-82
2022/02/12 04:41:56;;;;;;;0.00;0.00;;;-0.60;99.90;;;;;;5057919;28;20182;-83
2022/02/12 04:44:22;;;;;;;0.60;0.60;;;-0.60;99.90;;;;;;5070218;28;20205;-82
2022/02/12 04:46:47;;;;;;;0.10;0.10;;;-0.60;99.90;;;;;;5067046;28;20201;-82
2022/02/12 04:49:13;;;;;;;0.00;0.00;;;-0.70;99.90;;;;;;5073884;28;20200;-83
2022/02/12 04:51:38;;;;;;;0.10;0.10;;;-0.60;99.90;;;;;;5068222;28;20185;-83
2022/02/12 04:54:04;;;;;;;1.03;0.30;;;-0.60;99.90;;;;;;5059719;28;20234;-83
2022/02/12 04:56:29;;;;;;;0.00;0.00;;;-0.70;99.90;;;;;;5068748;28;20207;-82
2022/02/12 04:58:55;;;;;;;0.10;0.10;;;-0.70;99.90;;;;;;5057219;28;20184;-82
2022/02/12 05:01:21;;;;;;;0.10;0.10;;;-0.80;99.90;;;;;;5066343;28;20191;-83
2022/02/12 05:03:51;;;;;;;0.00;0.00;;;-0.80;99.90;;;;;;5059380;28;20205;-82
2022/02/12 05:06:17;;;;;;;0.00;0.00;;;-0.90;99.90;;;;;;5066970;28;20204;-82
2022/02/12 05:08:43;;;;;;;0.10;0.10;;;-1.00;99.90;;;;;;5068658;28;20192;-82
2022/02/12 05:11:09;;;;;;;0.10;0.10;;;-0.90;99.90;;;;;;5063152;28;20182;-83
2022/02/12 05:13:34;;;;;;;0.00;0.00;;;-0.90;99.90;;;;;;5061316;28;20642;-82
2022/02/12 05:16:00;;;;;;;0.00;0.00;;;-0.90;99.90;;;;;;5059478;28;20211;-81
2022/02/12 05:18:25;;;;;;;0.10;0.10;;;-0.80;99.90;;;;;;5066600;28;20241;-82
2022/02/12 05:20:51;;;;;;;0.10;0.10;;;-0.70;99.90;;;;;;5056866;28;20197;-82
2022/02/12 05:23:18;;;;;;;0.10;0.10;;;-0.80;99.90;;;;;;5056860;28;20651;-83
2022/02/12 05:25:43;;;;;;;0.20;0.20;;;-0.80;99.90;;;;;;5066502;28;20205;-83
2022/02/12 05:28:09;;;;;;;0.57;0.37;;;-0.70;99.90;;;;;;5061465;28;20591;-84
2022/02/12 05:30:34;;;;;;;0.10;0.10;;;-0.70;99.90;;;;;;5067223;28;20233;-83
2022/02/12 05:33:00;;;;;;;0.93;0.30;;;-0.80;99.90;;;;;;5066157;28;20188;-82
2022/02/12 05:35:26;;;;;;;0.00;0.00;;;-0.80;99.90;;;;;;5059331;28;20675;-83
2022/02/12 05:37:52;;;;;;;0.10;0.10;;;-0.80;99.90;;;;;;5065088;28;20234;-82
2022/02/12 05:40:18;;;;;;;0.10;0.10;;;-0.70;99.90;;;;;;5070899;28;20673;-83
2022/02/12 05:42:44;;;;;;;0.10;0.10;;;-0.70;99.90;;;;;;5058809;28;20189;-82
2022/02/12 05:45:09;;;;;;;0.10;0.10;;;-0.60;99.90;;;;;;5061380;28;20219;-82
2022/02/12 05:47:41;;;;;;;0.00;0.00;;;-0.60;99.90;;;;;;5061921;28;20188;-82
2022/02/12 05:50:08;;;;;;;0.10;0.10;;;-0.60;99.90;;;;;;5060272;28;20185;-82
2022/02/12 05:52:34;;;;;;;0.40;0.40;;;-0.60;99.90;;;;;;5063927;28;20227;-82
2022/02/12 05:54:59;;;;;;;1.33;0.30;;;-0.70;99.90;;;;;;5079763;28;20197;-83
2022/02/12 05:57:25;;;;;;;0.10;0.10;;;-0.70;99.90;;;;;;5066062;28;20217;-82
2022/02/12 05:59:50;;;;;;;0.20;0.20;;;-0.80;99.90;;;;;;5058063;28;20713;-83
2022/02/12 06:02:16;;;;;;;0.70;0.40;;;-1.00;99.90;;;;;;5067154;28;20554;-82
2022/02/12 06:04:41;;;;;;;0.10;0.10;;;-1.00;99.90;;;;;;5060604;28;20297;-83
2022/02/12 06:07:07;;;;;;;0.10;0.10;;;-1.20;99.90;;;;;;5063766;28;20217;-82
2022/02/12 06:09:33;;;;;;;0.10;0.10;;;-1.20;99.90;;;;;;5055938;28;20193;-82
2022/02/12 06:11:58;;;;;;;0.10;0.10;;;-1.30;99.90;;;;;;5067089;28;20639;-83
2022/02/12 06:14:24;;;;;;;0.10;0.10;;;-1.40;99.90;;;;;;5058791;28;20190;-82
2022/02/12 06:16:49;;;;;;;0.13;0.13;;;-1.40;99.90;;;;;;5064561;28;20192;-82
2022/02/12 06:19:15;;;;;;;0.10;0.10;;;-1.50;99.90;;;;;;5060364;28;20665;-82
2022/02/12 06:21:40;;;;;;;0.20;0.20;;;-1.40;99.90;;;;;;5084765;28;20272;-82
2022/02/12 06:24:06;;;;;;;0.40;0.40;;;-1.30;99.90;;;;;;5067346;28;20193;-82
2022/02/12 06:26:31;;;;;;;0.00;0.00;;;-1.30;99.90;;;;;;5066467;28;20678;-82
2022/02/12 06:28:57;;;;;;;0.40;0.10;;;-1.30;99.90;;;;;;5055923;28;20189;-83
2022/02/12 06:31:22;;;;;;;0.03;0.03;;;-1.30;99.90;;;;;;5058657;28;20306;-82
2022/02/12 06:33:48;;;;;;;0.10;0.10;;;-1.20;99.90;;;;;;5064643;28;20180;-82
2022/02/12 06:36:13;;;;;;;0.10;0.10;;;-1.20;99.90;;;;;;5072390;28;20629;-83
2022/02/12 06:38:39;;;;;;;0.10;0.10;;;-1.20;99.90;;;;;;5061549;28;20217;-82
2022/02/12 06:41:04;;;;;;;4.37;0.30;;;-1.00;99.90;;;;;;5067024;28;20213;-82
2022/02/12 06:43:30;;;;;;;0.10;0.10;;;-1.00;99.90;;;;;;5055114;28;20236;-82
2022/02/12 06:45:55;;;;;;;0.20;0.20;;;-0.90;99.90;;;;;;5064390;28;20198;-83
2022/02/12 06:48:21;;;;;;;0.77;0.77;;;-1.10;99.90;;;;;;5064641;28;20185;-83
2022/02/12 06:50:47;;;;;;;0.10;0.10;;;-1.30;99.90;;;;;;5058824;28;20194;-82
2022/02/12 06:53:13;;;;;;;3.70;0.67;;;-1.40;99.90;;;;;;5053577;28;20182;-82
2022/02/12 06:55:39;;;;;;;0.10;0.10;;;-1.50;99.90;;;;;;5066416;28;20213;-82
2022/02/12 06:58:05;;;;;;;0.43;0.40;;;-1.40;99.90;;;;;;5064232;28;20211;-82
2022/02/12 07:00:30;;;;;;;0.10;0.10;;;-1.40;99.90;;;;;;5065818;28;20207;-82
2022/02/12 07:02:57;;;;;;;0.10;0.10;;;-1.20;99.90;;;;;;5068129;28;20651;-82
2022/02/12 07:05:22;;;;;;;0.00;0.00;;;-1.20;99.90;;;;;;5061844;28;20212;-83
2022/02/12 07:07:49;;;;;;;0.00;0.00;;;-1.10;99.90;;;;;;5059210;28;20674;-81
2022/02/12 07:10:16;;;;;;;0.00;0.00;;;-0.90;99.90;;;;;;5069402;28;20224;-82
2022/02/12 07:12:42;;;;;;;0.10;0.10;;;-0.80;99.90;;;;;;5066019;28;20185;-82
2022/02/12 07:15:09;;;;;;;0.33;0.33;;;-0.60;99.90;;;;;;5060642;28;20240;-82
2022/02/12 07:17:39;;;;;;;0.10;0.10;;;-0.40;99.90;;;;;;5070029;28;20185;-83
2022/02/12 07:20:07;;;;;;;0.83;0.83;;;-0.20;99.90;;;;;;5076172;28;20243;-82
2022/02/12 07:22:32;;;;;;;0.30;0.30;;;-0.10;99.90;;;;;;5054576;28;20560;-82
2022/02/12 07:24:58;;;;;;;0.23;0.23;;;-0.20;99.90;;;;;;5068732;28;20216;-83
2022/02/12 07:27:24;;;;;;;0.30;0.30;;;-0.10;99.90;;;;;;5065500;28;20188;-82
2022/02/12 07:29:49;;;;;;;0.60;0.30;;;-0.10;99.90;;;;;;5068702;28;20208;-82
2022/02/12 07:32:15;;;;;;;0.43;0.43;;;-0.10;99.90;;;;;;5062648;28;20240;-82
2022/02/12 07:34:41;;;;;;;0.20;0.20;;;0.00;99.90;;;;;;5066325;28;20189;-82
2022/02/12 07:37:06;;;;;;;0.10;0.10;;;0.20;99.90;;;;;;5064789;28;20185;-84
2022/02/12 07:39:32;;;;;;;0.10;0.10;;;0.40;99.90;;;;;;5061245;28;20182;-82
2022/02/12 07:41:58;;;;;;;0.47;0.47;;;0.60;99.90;;;;;;5066810;28;20178;-82
2022/02/12 07:44:23;;;;;;;0.30;0.30;;;0.60;99.90;;;;;;5061477;28;20216;-83
2022/02/12 07:46:49;;;;;;;0.30;0.30;;;0.80;99.90;;;;;;5058947;28;20686;-83
2022/02/12 07:49:14;;;;;;;0.10;0.10;;;1.00;99.90;;;;;;5068938;28;20182;-82
2022/02/12 07:51:40;;;;;;;0.20;0.20;;;1.30;99.90;;;;;;5059770;28;20798;-82
2022/02/12 07:54:05;;;;;;;2.37;2.03;;;1.50;99.90;;;;;;5068984;28;20254;-82
2022/02/12 07:56:31;;;;;;;1.40;0.50;;;1.60;99.90;;;;;;5057879;28;20561;-82
2022/02/12 07:58:57;;;;;;;0.20;0.20;;;1.50;99.90;;;;;;5067726;28;20271;-82
2022/02/12 08:01:23;;;;;;;0.40;0.40;;;1.70;99.90;;;;;;5067020;28;20650;-82
2022/02/12 08:03:48;;;;;;;0.23;0.23;;;2.00;99.90;;;;;;5061716;28;20314;-82
2022/02/12 08:08:58;;;;;;;1.50;0.20;;;2.40;99.90;;;;;;5060523;28;20205;-84
2022/02/12 08:11:26;;;;;;;0.10;0.10;;;2.40;99.90;;;;;;5065533;28;20180;-82
2022/02/12 08:13:53;;;;;;;0.07;0.07;;;2.40;99.90;;;;;;5065766;28;20212;-82
2022/02/12 08:16:19;;;;;;;0.77;0.50;;;2.50;99.90;;;;;;5067988;28;20216;-82
2022/02/12 08:18:45;;;;;;;0.10;0.10;;;2.70;99.90;;;;;;5068360;28;20187;-82
2022/02/12 08:21:10;;;;;;;0.30;0.20;;;3.00;99.90;;;;;;5069304;28;20190;-82
2022/02/12 08:23:36;;;;;;;0.10;0.10;;;3.30;99.90;;;;;;5067241;28;20179;-82
2022/02/12 08:26:02;;;;;;;1.13;0.23;;;3.30;99.90;;;;;;5077934;28;20207;-82
2022/02/12 08:28:27;;;;;;;0.33;0.17;;;3.50;99.90;;;;;;5062937;28;20654;-82
2022/02/12 08:30:54;;;;;;;0.10;0.10;;;3.60;99.90;;;;;;5072765;28;20191;-82
2022/02/12 08:33:20;;;;;;;0.93;0.47;;;3.90;99.90;;;;;;5060658;28;20179;-82
2022/02/12 08:35:45;;;;;;;0.43;0.40;;;3.60;99.90;;;;;;5073146;28;20720;-82
2022/02/12 08:38:11;;;;;;;0.37;0.37;;;3.70;99.90;;;;;;5070285;28;20218;-82
2022/02/12 08:40:37;;;;;;;0.30;0.30;;;4.10;99.90;;;;;;5063812;28;20211;-82
2022/02/12 08:43:03;;;;;;;0.73;0.33;;;4.40;99.90;;;;;;5060528;28;20208;-81
2022/02/12 08:45:29;;;;;;;0.50;0.50;;;4.60;99.90;;;;;;5060349;28;20243;-82
2022/02/12 08:47:54;;;;;;;0.17;0.17;;;4.70;99.90;;;;;;5066015;28;20186;-83
2022/02/12 08:50:20;;;;;;;0.10;0.10;;;4.80;99.90;;;;;;5066623;28;20236;-82
2022/02/12 08:52:46;;;;;;;0.37;0.37;;;4.70;99.90;;;;;;5072576;28;20177;-82
2022/02/12 08:55:12;;;;;;;0.10;0.10;;;4.80;99.90;;;;;;5062954;28;20204;-82
2022/02/12 08:57:39;;;;;;;1.70;0.87;;;5.10;99.90;;;;;;5072105;28;20208;-82
2022/02/12 09:00:07;;;;;;;0.10;0.10;;;5.20;99.90;;;;;;5068464;28;20182;-82
2022/02/12 09:02:32;;;;;;;0.60;0.43;;;5.30;99.90;;;;;;5068407;28;20204;-83
2022/02/12 09:04:58;;;;;;;1.80;1.17;;;5.50;99.90;;;;;;5059590;28;20212;-82
2022/02/12 09:07:23;;;;;;;0.00;0.00;;;5.50;99.90;;;;;;5068992;28;20184;-82
2022/02/12 09:09:49;;;;;;;1.57;0.53;;;5.10;99.90;;;;;;5057779;28;20180;-82
2022/02/12 09:12:14;;;;;;;0.17;0.17;;;5.20;99.90;;;;;;5069341;28;20187;-82
2022/02/12 09:14:40;;;;;;;0.30;0.30;;;5.20;99.90;;;;;;5060093;28;20797;-81
2022/02/12 09:17:06;;;;;;;0.10;0.10;;;5.50;99.90;;;;;;5064703;28;20666;-82
2022/02/12 09:19:32;;;;;;;0.27;0.27;;;5.50;99.90;;;;;;5069892;28;20185;-83
2022/02/12 09:21:58;;;;;;;0.77;0.37;;;5.80;99.90;;;;;;5060988;28;20174;-82
2022/02/12 09:24:23;;;;;;;0.97;0.23;;;6.00;99.90;;;;;;5064821;28;20227;-82
2022/02/12 09:26:49;;;;;;;0.10;0.10;;;5.00;99.90;;;;;;5068075;28;20250;-82
2022/02/12 09:29:14;;;;;;;0.10;0.10;;;5.40;99.90;;;;;;5061514;28;20188;-82
2022/02/12 09:31:40;;;;;;;0.20;0.20;;;5.00;99.90;;;;;;5060408;28;20181;-81
2022/02/12 09:34:06;;;;;;;0.93;0.63;;;5.30;99.90;;;;;;5066329;28;20178;-82
2022/02/12 09:36:32;;;;;;;0.13;0.13;;;5.50;99.90;;;;;;5059143;28;20216;-83
2022/02/12 09:38:58;;;;;;;0.07;0.07;;;5.80;99.90;;;;;;5069379;28;20656;-82
2022/02/12 09:41:25;;;;;;;0.30;0.30;;;5.80;99.90;;;;;;5060147;28;20219;-82
2022/02/12 09:43:55;;;;;;;0.37;0.37;;;5.80;99.90;;;;;;5056069;28;20572;-83
2022/02/12 09:46:32;;;;;;;0.10;0.10;;;5.90;99.90;;;;;;5068397;28;20252;-83
2022/02/12 09:48:59;;;;;;;0.20;0.20;;;5.90;99.90;;;;;;5056909;28;20173;-83
2022/02/12 09:51:27;;;;;;;0.10;0.10;;;6.20;99.90;;;;;;5067682;28;20538;-82
2022/02/12 09:53:53;;;;;;;0.20;0.20;;;6.30;99.90;;;;;;5057716;28;20186;-82
2022/02/12 09:56:19;;;;;;;0.40;0.40;;;6.20;99.90;;;;;;5067008;28;20258;-83
2022/02/12 09:58:45;;;;;;;0.33;0.33;;;5.90;99.90;;;;;;5058998;28;20182;-83
2022/02/12 10:01:11;;;;;;;0.33;0.33;;;5.00;99.90;;;;;;5067695;28;20259;-82
2022/02/12 10:03:40;;;;;;;0.27;0.27;;;5.20;99.90;;;;;;5061000;28;20185;-82
2022/02/12 10:06:05;;;;;;;0.20;0.20;;;4.90;99.90;;;;;;5057662;28;20545;-82
2022/02/12 10:08:31;;;;;;;0.20;0.20;;;5.10;99.90;;;;;;5066409;28;20196;-83
2022/02/12 10:10:57;;;;;;;0.33;0.33;;;5.40;99.90;;;;;;5064742;28;20261;-83
2022/02/12 10:13:29;;;;;;;0.20;0.20;;;5.60;99.90;;;;;;5060914;28;20557;-82
2022/02/12 10:15:56;;;;;;;0.00;0.00;;;5.50;99.90;;;;;;5067377;28;20215;-83
2022/02/12 10:18:26;;;;;;;0.50;0.40;;;5.60;99.90;;;;;;5067576;28;20210;-82
2022/02/12 10:20:55;;;;;;;0.10;0.10;;;5.60;99.90;;;;;;5068787;28;20238;-83
2022/02/12 10:23:27;;;;;;;0.20;0.20;;;6.00;99.90;;;;;;5059554;28;20181;-82
2022/02/12 10:26:02;;;;;;;1.10;0.33;;;6.30;99.90;;;;;;5067879;28;20622;-82
2022/02/12 10:28:30;;;;;;;0.30;0.30;;;5.80;99.90;;;;;;5064714;28;20555;-83
2022/02/12 10:30:57;;;;;;;0.80;0.50;;;6.20;99.90;;;;;;5060783;28;20239;-83
2022/02/12 10:33:24;;;;;;;0.30;0.30;;;6.20;99.90;;;;;;5071164;28;20203;-83
2022/02/12 10:35:58;;;;;;;0.40;0.40;;;6.30;99.90;;;;;;5060086;28;20210;-83
2022/02/12 10:38:29;;;;;;;0.60;0.30;;;5.90;99.90;;;;;;5072074;28;20188;-82
2022/02/12 10:41:12;;;;;;;0.17;0.17;;;5.80;99.90;;;;;;5065121;28;20174;-82
2022/02/12 10:43:38;;;;;;;0.47;0.47;;;6.30;99.90;;;;;;5065328;28;20184;-83
2022/02/12 10:46:04;;;;;;;0.60;0.60;;;6.20;99.90;;;;;;5071654;28;20307;-83
2022/02/12 10:48:35;;;;;;;0.83;0.33;;;5.50;99.90;;;;;;5060996;28;20254;-82
2022/02/12 10:51:02;;;;;;;0.10;0.10;;;5.80;99.90;;;;;;5060646;28;20193;-83
2022/02/12 10:53:28;;;;;;;0.20;0.20;;;5.80;99.90;;;;;;5069130;28;20272;-83
2022/02/12 10:56:03;;;;;;;0.10;0.10;;;6.10;99.90;;;;;;5061863;28;20241;-83
2022/02/12 10:58:28;;;;;;;0.30;0.20;;;6.30;99.90;;;;;;5069047;28;20657;-82
2022/02/12 11:00:55;;;;;;;0.83;0.47;;;6.50;99.90;;;;;;5073860;28;20192;-82
2022/02/12 11:03:21;;;;;;;0.47;0.43;;;6.50;99.90;;;;;;5064650;28;20568;-82
2022/02/12 11:05:52;;;;;;;1.50;0.57;;;5.70;99.90;;;;;;5061889;28;20224;-82
2022/02/12 11:08:25;;;;;;;0.17;0.17;;;6.10;99.90;;;;;;5065451;28;20634;-82
2022/02/12 11:10:52;;;;;;;0.20;0.20;;;6.60;99.90;;;;;;5068540;28;20231;-82
2022/02/12 11:13:19;;;;;;;0.20;0.20;;;6.60;99.90;;;;;;5058749;28;20196;-82
2022/02/12 11:15:45;;;;;;;0.43;0.43;;;6.80;99.90;;;;;;5060977;28;20272;-82
2022/02/12 11:18:18;;;;;;;0.20;0.20;;;7.20;99.90;;;;;;5070052;28;20649;-83
2022/02/12 11:20:45;;;;;;;0.17;0.17;;;7.40;99.90;;;;;;5060791;28;20201;-82
2022/02/12 11:23:27;;;;;;;0.50;0.50;;;7.50;99.90;;;;;;5075181;28;20635;-82
2022/02/12 11:25:54;;;;;;;0.20;0.20;;;7.20;99.90;;;;;;5069097;28;20217;-82
2022/02/12 11:28:30;;;;;;;1.33;0.20;;;7.40;99.90;;;;;;5066473;28;20670;-83
2022/02/12 11:31:21;;;;;;;0.33;0.33;;;7.40;99.90;;;;;;5071839;28;20179;-84
2022/02/12 11:34:01;;;;;;;0.30;0.30;;;7.30;99.90;;;;;;5069276;28;20214;-83
2022/02/12 11:36:27;;;;;;;0.27;0.20;;;7.50;99.90;;;;;;5058782;28;20208;-83
2022/02/12 11:39:07;;;;;;;0.37;0.37;;;7.70;99.90;;;;;;5069122;28;20677;-83
2022/02/12 11:41:33;;;;;;;0.40;0.23;;;7.50;99.90;;;;;;5059754;28;20183;-84
2022/02/12 11:43:59;;;;;;;0.93;0.90;;;6.40;99.90;;;;;;5060211;28;20339;-83
2022/02/12 11:46:49;;;;;;;0.30;0.30;;;6.60;99.90;;;;;;5069815;28;20201;-83
2022/02/12 11:49:38;;;;;;;0.40;0.40;;;6.80;99.90;;;;;;5059533;28;20188;-83
2022/02/12 11:52:31;;;;;;;1.33;0.60;;;6.70;99.90;;;;;;5060095;28;20192;-83
2022/02/12 11:54:57;;;;;;;0.30;0.30;;;7.00;99.90;;;;;;5068521;28;20205;-83
2022/02/12 11:57:26;;;;;;;0.30;0.30;;;6.60;99.90;;;;;;5066802;28;20185;-84
2022/02/12 12:00:01;;;;;;;0.27;0.27;;;6.40;99.90;;;;;;5061092;28;20197;-83
2022/02/12 12:02:46;;;;;;;1.37;0.30;;;6.50;99.90;;;;;;5070750;28;20184;-84
2022/02/12 12:05:20;;;;;;;0.20;0.20;;;6.60;99.90;;;;;;5062031;28;20264;-83
2022/02/12 12:08:11;;;;;;;1.40;0.23;;;7.10;99.90;;;;;;5058242;28;20219;-84
2022/02/12 12:10:48;;;;;;;0.10;0.10;;;7.20;99.90;;;;;;5059232;28;20220;-83
2022/02/12 12:13:14;;;;;;;5.43;0.43;;;7.70;99.90;;;;;;5066078;28;20560;-83
2022/02/12 12:15:58;;;;;;;2.40;2.30;;;7.70;99.90;;;;;;5059868;28;20209;-83
2022/02/12 12:18:27;;;;;;;0.20;0.20;;;7.50;99.90;;;;;;5067424;28;20249;-83
2022/02/12 12:20:52;;;;;;;0.10;0.10;;;7.60;99.90;;;;;;5059892;28;20185;-83
2022/02/12 12:23:20;;;;;;;0.10;0.10;;;7.60;99.90;;;;;;5067448;28;20178;-84
2022/02/12 12:26:00;;;;;;;0.30;0.30;;;7.90;99.90;;;;;;5057706;28;20222;-83
2022/02/12 12:28:38;;;;;;;0.30;0.30;;;8.00;99.90;;;;;;5057646;28;20179;-84
2022/02/12 12:31:16;;;;;;;0.10;0.10;;;7.10;99.90;;;;;;5058890;28;20177;-83
2022/02/12 12:33:44;;;;;;;1.13;0.20;;;7.30;99.90;;;;;;5062024;28;20173;-85
2022/02/12 12:36:16;;;;;;;0.67;0.67;;;6.80;99.90;;;;;;5067142;28;20201;-83
2022/02/12 12:38:47;;;;;;;0.10;0.10;;;6.60;99.90;;;;;;5057340;28;20185;-83
2022/02/12 12:41:33;;;;;;;0.10;0.10;;;6.90;99.90;;;;;;5067030;28;20177;-83
2022/02/12 12:44:24;;;;;;;0.30;0.30;;;7.40;99.90;;;;;;5056063;28;20199;-83
2022/02/12 12:46:54;;;;;;;2.53;0.63;;;7.70;99.90;;;;;;5064813;28;20210;-82
2022/02/12 12:49:41;;;;;;;0.10;0.10;;;7.10;99.90;;;;;;5061475;28;20189;-83
2022/02/12 12:52:09;;;;;;;0.57;0.57;;;7.30;99.90;;;;;;5059099;28;20260;-83
2022/02/12 12:54:42;;;;;;;0.10;0.10;;;7.60;99.90;;;;;;5067341;28;20559;-83
2022/02/12 12:57:10;;;;;;;0.47;0.40;;;7.80;99.90;;;;;;5068631;28;20174;-83
2022/02/12 12:59:54;;;;;;;0.03;0.03;;;8.20;99.90;;;;;;5066446;28;20177;-83
2022/02/12 13:02:21;;;;;;;0.30;0.30;;;8.40;99.90;;;;;;5062465;28;20176;-83
2022/02/12 13:04:57;;;;;;;2.90;0.50;;;8.40;99.90;;;;;;5069724;28;20671;-84
2022/02/12 13:07:25;;;;;;;3.00;0.30;;;8.40;99.90;;;;;;5067936;28;20191;-84